createdAt,value
2023-03-11T00:00:31.431Z,1.58
2023-03-11T00:05:30.702Z,1.63
2023-03-11T00:10:38.166Z,1.45
2023-03-11T00:15:31.519Z,1.27
2023-03-11T00:20:30.108Z,1.40
2023-03-11T00:25:26.450Z,1.57
2023-03-11T00:30:20.790Z,1.73
2023-03-11T00:35:15.946Z,1.80
2023-03-11T00:40:13.913Z,1.40
2023-03-11T00:45:07.663Z,1.50
2023-03-11T00:50:01.101Z,2.22
2023-03-11T00:54:54.769Z,1.88
2023-03-11T00:59:48.757Z,1.85
2023-03-11T01:04:41.576Z,1.65
2023-03-11T01:09:34.733Z,1.75
2023-03-11T01:14:28.241Z,1.67
2023-03-11T01:19:21.196Z,2.10
2023-03-11T01:24:15.032Z,1.67
2023-03-11T01:29:08.599Z,2.67
2023-03-11T01:34:03.174Z,1.40
2023-03-11T01:38:55.739Z,2.10
2023-03-11T01:43:54.932Z,1.55
2023-03-11T01:48:55.780Z,2.28
2023-03-11T01:53:49.728Z,1.70
2023-03-11T01:58:45.490Z,2.10
2023-03-11T02:03:40.473Z,1.83
2023-03-11T02:08:34.848Z,2.25
2023-03-11T02:13:30.194Z,1.58
2023-03-11T02:18:22.996Z,1.67
2023-03-11T02:23:16.938Z,1.77
2023-03-11T02:28:12.636Z,1.50
2023-03-11T02:33:05.383Z,1.63
2023-03-11T02:37:59.284Z,1.20
2023-03-11T02:42:59.590Z,1.70
2023-03-11T02:47:53.164Z,1.55
2023-03-11T02:52:49.012Z,1.90
2023-03-11T02:57:43.187Z,1.50
2023-03-11T03:02:36.254Z,1.65
2023-03-11T03:07:28.722Z,1.67
2023-03-11T03:12:22.640Z,1.15
2023-03-11T03:17:15.394Z,1.30
2023-03-11T03:22:08.733Z,1.10
2023-03-11T03:27:01.641Z,1.00
2023-03-11T03:31:56.061Z,1.20
2023-03-11T03:36:49.362Z,1.10
2023-03-11T03:41:44.346Z,0.98
2023-03-11T03:46:38.604Z,1.58
2023-03-11T03:51:35.047Z,0.95
2023-03-11T03:57:00.436Z,0.80
2023-03-11T04:01:58.477Z,0.60
2023-03-11T04:06:53.229Z,0.80
2023-03-11T04:11:45.766Z,0.73
2023-03-11T04:16:41.514Z,0.80
2023-03-11T04:21:38.388Z,0.95
2023-03-11T04:26:32.021Z,0.50
2023-03-11T04:31:25.518Z,0.65
2023-03-11T04:36:17.988Z,0.55
2023-03-11T04:41:11.955Z,0.73
2023-03-11T04:46:07.407Z,0.60
2023-03-11T04:51:01.784Z,0.70
2023-03-11T04:55:56.674Z,0.70
2023-03-11T05:00:50.232Z,0.65
2023-03-11T05:05:43.813Z,1.05
2023-03-11T05:10:37.877Z,0.70
2023-03-11T05:15:33.045Z,0.90
2023-03-11T05:20:27.936Z,1.90
2023-03-11T05:25:21.567Z,2.30
2023-03-11T05:30:15.948Z,2.60
2023-03-11T05:35:11.984Z,2.47
2023-03-11T05:40:08.536Z,4.25
2023-03-11T05:45:04.392Z,2.63
2023-03-11T05:49:59.834Z,2.60
2023-03-11T05:54:53.485Z,5.63
2023-03-11T05:59:49.779Z,4.25
2023-03-11T06:04:43.681Z,2.38
2023-03-11T06:09:37.554Z,1.70
2023-03-11T06:14:33.646Z,2.25
2023-03-11T06:19:27.941Z,2.47
2023-03-11T06:24:21.270Z,2.72
2023-03-11T06:29:15.822Z,2.47
2023-03-11T06:34:11.760Z,3.72
2023-03-11T06:39:05.602Z,2.60
2023-03-11T06:44:01.283Z,4.38
2023-03-11T06:48:56.274Z,2.63
2023-03-11T06:53:52.857Z,2.15
2023-03-11T06:58:47.202Z,5.57
2023-03-11T07:03:42.065Z,3.95
2023-03-11T07:08:36.179Z,3.65
2023-03-11T07:13:30.057Z,2.55
2023-03-11T07:18:23.175Z,3.22
2023-03-11T07:23:17.093Z,2.88
2023-03-11T07:28:10.538Z,2.53
2023-03-11T07:33:03.891Z,2.25
2023-03-11T07:37:57.540Z,2.10
2023-03-11T07:42:51.577Z,1.70
2023-03-11T07:47:46.619Z,2.50
2023-03-11T07:52:40.692Z,1.83
2023-03-11T07:57:33.422Z,1.65
2023-03-11T08:02:26.734Z,1.95
2023-03-11T08:07:20.903Z,1.65
2023-03-11T08:12:14.266Z,1.40
2023-03-11T08:17:07.562Z,1.60
2023-03-11T08:22:02.542Z,1.90
2023-03-11T08:26:57.194Z,1.60
2023-03-11T08:31:50.700Z,1.30
2023-03-11T08:36:45.106Z,1.35
2023-03-11T08:41:39.228Z,1.20
2023-03-11T08:46:37.883Z,0.90
2023-03-11T08:51:31.598Z,1.15
2023-03-11T08:56:24.936Z,1.10
2023-03-11T09:01:19.065Z,1.10
2023-03-11T09:06:15.626Z,1.30
2023-03-11T09:16:02.744Z,1.38
2023-03-11T09:20:59.211Z,1.92
2023-03-11T09:25:52.631Z,2.22
2023-03-11T09:30:45.835Z,1.13
2023-03-11T09:35:39.579Z,0.95
2023-03-11T09:41:22.641Z,0.60
2023-03-11T09:46:29.008Z,0.70
2023-03-11T09:51:29.483Z,0.63
2023-03-11T09:56:24.295Z,0.40
2023-03-11T10:01:30.836Z,0.20
2023-03-11T10:06:30.704Z,0.60
2023-03-11T10:11:46.165Z,0.60
2023-03-11T10:17:04.979Z,0.43
2023-03-11T10:22:17.520Z,0.40
2023-03-11T10:27:16.461Z,0.40
2023-03-11T10:32:20.949Z,0.50
2023-03-11T10:37:49.299Z,0.20
2023-03-11T10:42:44.873Z,0.60
2023-03-11T10:47:38.765Z,0.30
2023-03-11T10:52:31.729Z,0.10
2023-03-11T10:57:24.418Z,0.10
2023-03-11T11:02:52.431Z,0.10
2023-03-11T11:07:56.071Z,0.52
2023-03-11T11:13:19.800Z,0.20
2023-03-11T11:18:22.513Z,0.20
2023-03-11T11:23:26.474Z,0.20
2023-03-11T11:28:21.404Z,0.57
2023-03-11T11:33:51.120Z,0.10
2023-03-11T11:38:45.028Z,0.20
2023-03-11T11:43:54.342Z,0.00
2023-03-11T11:49:13.768Z,0.10
2023-03-11T11:54:42.909Z,0.20
2023-03-11T11:59:35.756Z,0.50
2023-03-11T12:04:50.769Z,0.20
2023-03-11T12:10:26.123Z,0.17
2023-03-11T12:15:45.519Z,0.10
2023-03-11T12:20:44.955Z,0.10
2023-03-11T12:26:22.619Z,0.05
2023-03-11T12:31:15.841Z,0.10
2023-03-11T12:36:22.838Z,0.00
2023-03-11T12:41:15.550Z,0.00
2023-03-11T12:46:10.719Z,0.00
2023-03-11T12:51:04.205Z,0.10
2023-03-11T12:56:20.533Z,0.10
2023-03-11T13:01:20.969Z,0.10
2023-03-11T13:06:16.777Z,0.10
2023-03-11T13:11:32.923Z,0.10
2023-03-11T13:16:25.569Z,0.10
2023-03-11T13:21:30.084Z,0.30
2023-03-11T13:26:30.588Z,0.20
2023-03-11T13:31:35.754Z,0.10
2023-03-11T13:36:50.156Z,0.20
2023-03-11T13:41:44.422Z,0.13
2023-03-11T13:46:39.340Z,0.10
2023-03-11T13:51:41.890Z,0.20
2023-03-11T13:56:44.730Z,0.10
2023-03-11T14:01:39.399Z,0.10
2023-03-11T14:06:32.567Z,0.45
2023-03-11T14:11:31.963Z,0.10
2023-03-11T14:16:34.042Z,0.20
2023-03-11T14:21:26.884Z,0.10
2023-03-11T14:26:22.899Z,0.10
2023-03-11T14:31:44.296Z,0.20
2023-03-11T14:36:46.505Z,0.28
2023-03-11T14:41:41.465Z,0.10
2023-03-11T14:46:34.790Z,0.10
2023-03-11T14:51:32.237Z,0.20
2023-03-11T14:56:27.159Z,0.30
2023-03-11T15:01:23.019Z,0.25
2023-03-11T15:06:18.862Z,0.20
2023-03-11T15:11:41.818Z,0.15
2023-03-11T15:16:40.920Z,0.20
2023-03-11T15:21:44.408Z,0.20
2023-03-11T15:27:01.974Z,0.20
2023-03-11T15:31:59.135Z,0.20
2023-03-11T15:36:53.946Z,0.20
2023-03-11T15:41:49.511Z,0.30
2023-03-11T15:46:43.377Z,0.22
2023-03-11T15:51:37.452Z,0.20
2023-03-11T15:56:33.643Z,0.30
2023-03-11T16:01:29.166Z,0.40
2023-03-11T16:06:24.950Z,0.70
2023-03-11T16:11:19.119Z,1.02
2023-03-11T16:16:18.681Z,0.40
2023-03-11T16:21:17.152Z,1.05
2023-03-11T16:31:02.496Z,0.40
2023-03-11T16:35:55.664Z,0.40
2023-03-11T16:40:57.307Z,0.63
2023-03-11T16:45:50.470Z,0.40
2023-03-11T16:50:43.568Z,0.50
2023-03-11T16:55:37.668Z,0.43
2023-03-11T17:00:31.289Z,1.85
2023-03-11T17:05:24.649Z,0.75
2023-03-11T17:10:18.127Z,0.77
2023-03-11T17:15:11.925Z,1.20
2023-03-11T17:20:07.144Z,5.10
2023-03-11T17:25:02.870Z,4.38
2023-03-11T17:29:56.935Z,3.75
2023-03-11T17:34:51.347Z,1.63
2023-03-11T17:39:43.851Z,1.30
2023-03-11T17:44:50.692Z,1.20
2023-03-11T17:49:45.223Z,4.83
2023-03-11T17:54:39.291Z,6.65
2023-03-11T17:59:32.322Z,3.15
2023-03-11T18:04:26.486Z,1.73
2023-03-11T18:09:20.298Z,1.40
2023-03-11T18:14:13.364Z,2.25
2023-03-11T18:19:07.306Z,3.20
2023-03-11T18:24:01.985Z,4.82
2023-03-11T18:28:59.009Z,5.65
2023-03-11T18:34:03.540Z,7.22
2023-03-11T18:38:58.104Z,7.97
2023-03-11T18:43:58.304Z,7.93
2023-03-11T18:48:51.121Z,9.07
2023-03-11T18:53:44.540Z,10.38
2023-03-11T18:58:37.593Z,11.40
2023-03-11T19:03:31.429Z,13.18
2023-03-11T19:08:27.500Z,10.32
2023-03-11T19:13:22.156Z,10.95
2023-03-11T19:18:15.147Z,10.93
2023-03-11T19:23:09.727Z,12.05
2023-03-11T19:28:03.844Z,10.93
2023-03-11T19:32:56.877Z,12.13
2023-03-11T19:37:57.524Z,12.25
2023-03-11T19:42:51.127Z,12.15
2023-03-11T19:47:46.583Z,12.43
2023-03-11T19:52:39.768Z,12.60
2023-03-11T19:57:32.412Z,11.75
2023-03-11T20:02:24.701Z,12.27
2023-03-11T20:07:18.008Z,12.55
2023-03-11T20:12:11.820Z,11.32
2023-03-11T20:17:04.850Z,18.45
2023-03-11T20:21:58.862Z,34.45
2023-03-11T20:26:52.871Z,36.47
2023-03-11T20:31:46.544Z,38.78
2023-03-11T20:36:39.700Z,21.15
2023-03-11T20:41:39.539Z,12.63
2023-03-11T20:46:34.643Z,11.77
2023-03-11T20:51:29.042Z,12.70
2023-03-11T20:56:25.455Z,13.05
2023-03-11T21:01:21.035Z,17.23
2023-03-11T21:06:18.491Z,12.07
2023-03-11T21:11:12.450Z,14.13
2023-03-11T21:16:08.816Z,13.77
2023-03-11T21:21:04.422Z,12.30
2023-03-11T21:26:00.234Z,12.63
2023-03-11T21:31:19.004Z,11.85
2023-03-11T21:36:12.914Z,10.90
2023-03-11T21:41:10.971Z,10.82
2023-03-11T21:46:03.947Z,11.40
2023-03-11T21:51:16.258Z,11.57
2023-03-11T21:56:29.135Z,10.93
2023-03-11T22:01:21.522Z,11.85
2023-03-11T22:06:34.970Z,14.48
2023-03-11T22:11:28.151Z,12.10
2023-03-11T22:16:22.430Z,12.18
2023-03-11T22:21:16.753Z,13.07
2023-03-11T22:26:09.785Z,15.23
2023-03-11T22:31:09.431Z,14.68
2023-03-11T22:36:03.007Z,16.10
2023-03-11T22:40:55.576Z,18.35
2023-03-11T22:45:49.053Z,16.33
2023-03-11T22:50:43.564Z,17.25
2023-03-11T22:55:40.633Z,16.90
2023-03-11T23:00:34.178Z,17.42
2023-03-11T23:05:27.412Z,17.65
2023-03-11T23:10:21.570Z,16.75
2023-03-11T23:15:17.600Z,17.40
2023-03-11T23:20:16.439Z,17.80
2023-03-11T23:25:12.593Z,17.58
2023-03-11T23:30:07.306Z,18.02
2023-03-11T23:35:01.308Z,18.42
2023-03-11T23:39:55.531Z,18.63
2023-03-11T23:44:49.200Z,16.38
2023-03-11T23:49:42.552Z,14.57
2023-03-11T23:54:36.789Z,13.90
2023-03-11T23:59:31.404Z,15.32
